createdAt,value
2018-02-14T00:00:33.592Z,53.80
2018-02-14T00:03:01.992Z,53.80
2018-02-14T00:05:30.352Z,54.20
2018-02-14T00:07:58.632Z,55.00
2018-02-14T00:10:28.532Z,55.20
2018-02-14T00:12:56.732Z,55.20
2018-02-14T00:15:24.891Z,55.60
2018-02-14T00:17:53.152Z,55.90
2018-02-14T00:20:21.612Z,55.80
2018-02-14T00:22:50.032Z,56.10
2018-02-14T00:25:18.072Z,56.10
2018-02-14T00:27:46.272Z,55.80
2018-02-14T00:30:14.272Z,55.50
2018-02-14T00:32:43.232Z,54.90
2018-02-14T00:35:11.612Z,54.90
2018-02-14T00:37:39.991Z,55.20
2018-02-14T00:40:08.272Z,54.90
2018-02-14T00:42:36.572Z,54.50
2018-02-14T00:45:04.615Z,55.10
2018-02-14T00:47:32.894Z,55.20
2018-02-14T00:50:01.052Z,54.70
2018-02-14T00:52:29.932Z,55.50
2018-02-14T00:54:58.012Z,55.50
2018-02-14T00:57:26.371Z,54.50
2018-02-14T00:59:54.491Z,54.50
2018-02-14T01:02:23.653Z,54.90
2018-02-14T01:04:52.752Z,54.30
2018-02-14T01:07:21.452Z,54.40
2018-02-14T01:09:49.711Z,54.10
2018-02-14T01:12:18.312Z,54.10
2018-02-14T01:14:46.574Z,54.10
2018-02-14T01:17:15.151Z,54.30
2018-02-14T01:19:43.412Z,54.50
2018-02-14T01:22:11.612Z,54.80
2018-02-14T01:24:39.771Z,53.70
2018-02-14T01:27:09.192Z,54.20
2018-02-14T01:29:37.451Z,54.20
2018-02-14T01:32:05.931Z,54.30
2018-02-14T01:34:34.411Z,53.80
2018-02-14T01:37:02.872Z,54.00
2018-02-14T01:39:31.052Z,54.50
2018-02-14T01:41:59.652Z,53.80
2018-02-14T01:44:27.732Z,52.60
2018-02-14T01:46:55.892Z,52.50
2018-02-14T01:49:24.272Z,52.70
2018-02-14T01:51:52.613Z,52.90
2018-02-14T01:54:20.832Z,53.30
2018-02-14T01:56:49.911Z,52.90
2018-02-14T01:59:18.191Z,52.90
2018-02-14T02:01:46.577Z,53.50
2018-02-14T02:04:15.052Z,53.30
2018-02-14T02:06:43.251Z,53.50
2018-02-14T02:09:12.212Z,53.60
2018-02-14T02:11:40.393Z,53.60
2018-02-14T02:14:08.451Z,53.50
2018-02-14T02:16:37.352Z,53.60
2018-02-14T02:19:05.511Z,53.70
2018-02-14T02:21:33.591Z,53.50
2018-02-14T02:24:01.652Z,54.10
2018-02-14T02:26:29.831Z,54.30
2018-02-14T02:28:58.432Z,54.90
2018-02-14T02:31:27.832Z,54.30
2018-02-14T02:33:56.914Z,54.40
2018-02-14T02:36:25.512Z,54.40
2018-02-14T02:38:54.791Z,54.30
2018-02-14T02:41:22.892Z,54.30
2018-02-14T02:43:52.154Z,54.30
2018-02-14T02:46:20.732Z,54.30
2018-02-14T02:48:49.154Z,53.90
2018-02-14T02:51:18.312Z,53.60
2018-02-14T02:53:46.331Z,53.70
2018-02-14T02:56:14.873Z,53.70
2018-02-14T02:58:43.092Z,53.50
2018-02-14T03:01:11.432Z,53.60
2018-02-14T03:03:40.731Z,52.90
2018-02-14T03:06:08.972Z,52.80
2018-02-14T03:08:37.572Z,52.80
2018-02-14T03:11:05.712Z,53.10
2018-02-14T03:13:33.831Z,53.50
2018-02-14T03:16:02.072Z,53.30
2018-02-14T03:18:30.171Z,52.80
2018-02-14T03:20:58.191Z,53.00
2018-02-14T03:23:26.431Z,53.00
2018-02-14T03:25:55.612Z,51.60
2018-02-14T03:28:23.672Z,51.60
2018-02-14T03:30:51.955Z,51.80
2018-02-14T03:33:20.132Z,52.20
2018-02-14T03:35:48.292Z,52.00
2018-02-14T03:38:18.032Z,52.20
2018-02-14T03:40:47.012Z,52.30
2018-02-14T03:43:16.092Z,52.40
2018-02-14T03:45:44.471Z,52.30
2018-02-14T03:48:12.751Z,52.10
2018-02-14T03:50:40.931Z,51.90
2018-02-14T03:53:09.812Z,51.10
2018-02-14T03:55:37.871Z,51.10
2018-02-14T03:58:06.051Z,51.30
2018-02-14T04:00:34.551Z,51.80
2018-02-14T04:03:04.191Z,52.50
2018-02-14T04:05:32.631Z,52.50
2018-02-14T04:08:01.992Z,51.60
2018-02-14T04:10:30.431Z,52.00
2018-02-14T04:12:59.351Z,52.80
2018-02-14T04:15:27.691Z,52.20
2018-02-14T04:17:56.772Z,52.70
2018-02-14T04:20:25.831Z,52.60
2018-02-14T04:22:53.932Z,52.60
2018-02-14T04:25:22.312Z,52.90
2018-02-14T04:27:51.331Z,53.00
2018-02-14T04:30:24.991Z,53.00
2018-02-14T04:32:53.131Z,53.10
2018-02-14T04:35:21.332Z,53.20
2018-02-14T04:37:51.051Z,53.50
2018-02-14T04:40:19.052Z,53.40
2018-02-14T04:42:47.172Z,53.50
2018-02-14T04:45:15.351Z,53.60
2018-02-14T04:47:43.531Z,53.30
2018-02-14T04:50:11.811Z,53.20
2018-02-14T04:52:39.952Z,53.00
2018-02-14T04:55:08.112Z,52.60
2018-02-14T04:57:36.092Z,52.60
2018-02-14T05:00:04.092Z,52.60
2018-02-14T05:02:32.332Z,52.80
2018-02-14T05:05:00.391Z,53.00
2018-02-14T05:07:28.612Z,52.80
2018-02-14T05:09:56.993Z,52.60
2018-02-14T05:12:25.372Z,52.70
2018-02-14T05:14:53.451Z,52.80
2018-02-14T05:17:22.531Z,52.90
2018-02-14T05:19:51.832Z,52.50
2018-02-14T05:22:20.212Z,52.50
2018-02-14T05:24:48.372Z,52.70
2018-02-14T05:27:16.532Z,52.50
2018-02-14T05:29:44.831Z,52.60
2018-02-14T05:32:12.893Z,52.20
2018-02-14T05:34:41.172Z,52.60
2018-02-14T05:37:10.472Z,52.30
2018-02-14T05:39:39.571Z,52.20
2018-02-14T05:42:07.851Z,52.20
2018-02-14T05:44:36.272Z,52.20
2018-02-14T05:47:04.932Z,53.20
2018-02-14T05:49:34.092Z,53.00
2018-02-14T05:52:02.692Z,53.00
2018-02-14T05:54:30.952Z,53.20
2018-02-14T05:56:59.232Z,53.50
2018-02-14T05:59:28.111Z,53.40
2018-02-14T06:01:56.452Z,53.40
2018-02-14T06:04:24.707Z,53.60
2018-02-14T06:06:52.932Z,53.70
2018-02-14T06:09:21.312Z,53.30
2018-02-14T06:11:49.452Z,52.90
2018-02-14T06:14:17.871Z,52.80
2018-02-14T06:16:46.973Z,53.70
2018-02-14T06:19:15.135Z,53.80
2018-02-14T06:21:43.472Z,53.40
2018-02-14T06:24:11.672Z,53.60
2018-02-14T06:26:39.851Z,53.70
2018-02-14T06:29:07.852Z,54.10
2018-02-14T06:31:36.832Z,54.40
2018-02-14T06:34:04.992Z,54.30
2018-02-14T06:36:33.272Z,54.10
2018-02-14T06:39:03.094Z,54.30
2018-02-14T06:41:31.372Z,54.30
2018-02-14T06:43:59.532Z,53.80
2018-02-14T06:46:28.631Z,54.10
2018-02-14T06:48:57.833Z,54.40
2018-02-14T06:51:25.994Z,54.40
2018-02-14T06:53:54.292Z,54.50
2018-02-14T06:56:23.492Z,54.20
2018-02-14T06:58:52.518Z,54.10
2018-02-14T07:01:20.631Z,54.00
2018-02-14T07:03:48.913Z,53.80
2018-02-14T07:06:16.991Z,53.50
2018-02-14T07:08:45.091Z,53.20
2018-02-14T07:11:13.431Z,53.50
2018-02-14T07:13:42.052Z,53.50
2018-02-14T07:16:10.491Z,53.70
2018-02-14T07:18:39.832Z,53.40
2018-02-14T07:21:08.352Z,53.30
2018-02-14T07:23:36.753Z,53.30
2018-02-14T07:26:05.332Z,53.50
2018-02-14T07:28:33.772Z,53.30
2018-02-14T07:31:02.332Z,53.60
2018-02-14T07:33:30.752Z,53.80
2018-02-14T07:35:59.351Z,53.30
2018-02-14T07:38:29.271Z,53.90
2018-02-14T07:40:58.452Z,54.40
2018-02-14T07:43:26.774Z,54.40
2018-02-14T07:45:55.132Z,54.70
2018-02-14T07:48:24.112Z,54.50
2018-02-14T07:50:53.912Z,54.40
2018-02-14T07:53:23.032Z,54.50
2018-02-14T07:55:52.134Z,54.50
2018-02-14T07:58:21.412Z,54.20
2018-02-14T08:00:49.792Z,54.20
2018-02-14T08:03:18.072Z,54.20
2018-02-14T08:05:47.972Z,54.20
2018-02-14T08:08:16.253Z,54.20
2018-02-14T08:10:44.434Z,53.40
2018-02-14T08:13:12.792Z,53.00
2018-02-14T08:15:41.072Z,53.50
2018-02-14T08:18:09.559Z,53.80
2018-02-14T08:20:37.953Z,53.70
2018-02-14T08:23:06.431Z,53.70
2018-02-14T08:25:35.720Z,54.10
2018-02-14T08:28:03.872Z,54.00
2018-02-14T08:30:32.873Z,53.90
2018-02-14T08:33:01.892Z,53.60
2018-02-14T08:35:30.872Z,53.50
2018-02-14T08:37:59.232Z,54.00
2018-02-14T08:40:27.412Z,53.40
2018-02-14T08:42:55.813Z,53.30
2018-02-14T08:45:25.192Z,53.20
2018-02-14T08:47:53.712Z,53.20
2018-02-14T08:50:21.951Z,53.10
2018-02-14T08:52:50.332Z,52.90
2018-02-14T08:55:18.915Z,52.80
2018-02-14T08:57:47.292Z,53.70
2018-02-14T09:00:15.672Z,53.10
2018-02-14T09:02:44.152Z,53.50
2018-02-14T09:05:12.536Z,53.10
2018-02-14T09:07:42.375Z,53.30
2018-02-14T09:10:10.912Z,53.30
2018-02-14T09:12:39.272Z,53.50
2018-02-14T09:15:07.871Z,52.60
2018-02-14T09:17:36.331Z,52.70
2018-02-14T09:20:04.834Z,53.10
2018-02-14T09:22:33.072Z,52.40
2018-02-14T09:25:01.179Z,52.30
2018-02-14T09:27:29.451Z,51.60
2018-02-14T09:29:57.731Z,51.30
2018-02-14T09:32:25.871Z,51.50
2018-02-14T09:34:53.971Z,51.70
2018-02-14T09:37:22.051Z,51.90
2018-02-14T09:39:50.211Z,50.60
2018-02-14T09:42:18.891Z,49.90
2018-02-14T09:44:47.291Z,49.50
2018-02-14T09:47:15.692Z,48.70
2018-02-14T09:49:44.952Z,47.30
2018-02-14T09:52:13.231Z,47.20
2018-02-14T09:54:41.711Z,45.90
2018-02-14T09:57:10.092Z,46.70
2018-02-14T09:59:38.374Z,46.10
2018-02-14T10:02:06.751Z,44.90
2018-02-14T10:04:34.919Z,44.80
2018-02-14T10:07:03.116Z,46.60
2018-02-14T10:09:32.332Z,40.40
2018-02-14T10:12:00.990Z,40.40
2018-02-14T10:14:30.380Z,42.10
2018-02-14T10:16:58.711Z,42.10
2018-02-14T10:19:27.232Z,41.60
2018-02-14T10:21:55.759Z,40.80
2018-02-14T10:24:24.081Z,40.60
2018-02-14T10:26:52.993Z,38.80
2018-02-14T10:29:22.074Z,38.20
2018-02-14T10:31:50.312Z,38.60
2018-02-14T10:34:18.591Z,39.30
2018-02-14T10:36:46.791Z,38.70
2018-02-14T10:39:15.172Z,37.40
2018-02-14T10:41:43.552Z,38.90
2018-02-14T10:44:11.992Z,37.70
2018-02-14T10:46:40.312Z,38.40
2018-02-14T10:49:09.451Z,38.80
2018-02-14T10:51:37.771Z,38.80
2018-02-14T10:54:06.172Z,38.90
2018-02-14T10:56:35.252Z,38.70
2018-02-14T10:59:03.432Z,38.70
2018-02-14T11:01:37.192Z,38.90
2018-02-14T11:04:11.133Z,38.70
2018-02-14T11:06:39.511Z,39.40
2018-02-14T11:09:07.891Z,38.20
2018-02-14T11:11:36.172Z,38.00
2018-02-14T11:14:04.351Z,37.30
2018-02-14T11:16:33.432Z,34.90
2018-02-14T11:19:01.672Z,34.90
2018-02-14T11:21:29.772Z,32.00
2018-02-14T11:23:57.932Z,31.70
2018-02-14T11:26:26.439Z,31.90
2018-02-14T11:28:54.611Z,32.80
2018-02-14T11:31:23.112Z,31.70
2018-02-14T11:33:52.372Z,30.70
2018-02-14T11:36:20.939Z,30.60
2018-02-14T11:38:49.351Z,31.00
2018-02-14T11:41:18.531Z,31.30
2018-02-14T11:43:47.092Z,31.70
2018-02-14T11:46:15.612Z,33.70
2018-02-14T11:48:44.391Z,33.00
2018-02-14T11:51:12.971Z,33.30
2018-02-14T11:53:41.351Z,34.90
2018-02-14T11:56:09.631Z,33.70
2018-02-14T11:58:38.054Z,33.90
2018-02-14T12:01:06.285Z,35.40
2018-02-14T12:03:34.551Z,33.40
2018-02-14T12:06:02.631Z,34.10
2018-02-14T12:08:31.111Z,34.20
2018-02-14T12:11:01.012Z,33.50
2018-02-14T12:13:29.611Z,33.50
2018-02-14T12:15:58.152Z,34.70
2018-02-14T12:18:26.352Z,34.20
2018-02-14T12:20:54.631Z,33.50
2018-02-14T12:23:23.072Z,32.70
2018-02-14T12:25:51.272Z,32.40
2018-02-14T12:28:19.292Z,32.50
2018-02-14T12:30:48.573Z,32.30
2018-02-14T12:33:17.452Z,33.70
2018-02-14T12:35:45.499Z,33.70
2018-02-14T12:38:13.691Z,34.60
2018-02-14T12:40:41.751Z,36.00
2018-02-14T12:43:10.032Z,36.20
2018-02-14T12:45:38.311Z,36.50
2018-02-14T12:48:06.712Z,35.60
2018-02-14T12:50:35.872Z,36.60
2018-02-14T12:53:04.371Z,36.50
2018-02-14T12:55:32.852Z,37.60
2018-02-14T12:58:01.127Z,38.30
2018-02-14T13:00:29.196Z,38.00
2018-02-14T13:02:57.373Z,37.80
2018-02-14T13:05:25.893Z,38.20
2018-02-14T13:07:54.334Z,38.60
2018-02-14T13:10:23.533Z,39.30
2018-02-14T13:12:52.932Z,38.80
2018-02-14T13:15:21.893Z,39.60
2018-02-14T13:17:50.231Z,39.50
2018-02-14T13:20:18.657Z,40.50
2018-02-14T13:22:47.155Z,40.00
2018-02-14T13:25:16.655Z,40.10
2018-02-14T13:27:45.836Z,40.00
2018-02-14T13:30:14.155Z,40.30
2018-02-14T13:32:43.536Z,39.60
2018-02-14T13:35:12.616Z,39.60
2018-02-14T13:37:41.577Z,40.20
2018-02-14T13:40:09.717Z,40.00
2018-02-14T13:42:38.675Z,40.50
2018-02-14T13:45:06.816Z,40.50
2018-02-14T13:47:35.537Z,40.10
2018-02-14T13:50:03.846Z,40.10
2018-02-14T13:52:32.135Z,39.30
2018-02-14T13:55:00.677Z,38.80
2018-02-14T13:57:28.797Z,39.90
2018-02-14T13:59:57.037Z,39.70
2018-02-14T14:02:25.996Z,41.70
2018-02-14T14:04:54.955Z,41.70
2018-02-14T14:07:23.476Z,42.30
2018-02-14T14:09:51.655Z,41.20
2018-02-14T14:12:19.735Z,41.20
2018-02-14T14:14:48.177Z,41.50
2018-02-14T14:17:16.376Z,42.60
2018-02-14T14:19:44.556Z,41.20
2018-02-14T14:22:12.816Z,42.60
2018-02-14T14:24:41.616Z,41.70
2018-02-14T14:27:09.676Z,41.70
2018-02-14T14:29:38.096Z,41.70
2018-02-14T14:32:06.249Z,42.50
2018-02-14T14:34:35.396Z,43.30
2018-02-14T14:37:04.116Z,43.30
2018-02-14T14:39:32.138Z,43.60
2018-02-14T14:42:00.576Z,43.80
2018-02-14T14:44:29.756Z,43.00
2018-02-14T14:46:58.236Z,43.00
2018-02-14T14:49:26.356Z,43.40
2018-02-14T14:51:54.896Z,44.20
2018-02-14T14:54:24.515Z,44.40
2018-02-14T14:56:53.696Z,45.00
2018-02-14T14:59:21.856Z,45.00
2018-02-14T15:01:50.036Z,45.70
2018-02-14T15:04:19.116Z,46.50
2018-02-14T15:06:47.216Z,46.50
2018-02-14T15:09:15.436Z,46.90
2018-02-14T15:11:43.657Z,46.60
2018-02-14T15:14:11.716Z,46.70
2018-02-14T15:16:39.995Z,46.30
2018-02-14T15:19:08.996Z,46.40
2018-02-14T15:21:37.055Z,46.40
2018-02-14T15:24:05.536Z,46.90
2018-02-14T15:26:33.815Z,46.90
2018-02-14T15:29:02.197Z,46.80
2018-02-14T15:31:30.362Z,46.90
2018-02-14T15:33:58.536Z,47.80
2018-02-14T15:36:27.657Z,47.70
2018-02-14T15:38:56.735Z,47.60
2018-02-14T15:41:25.216Z,47.60
2018-02-14T15:43:53.796Z,47.20
2018-02-14T15:46:22.137Z,47.40
2018-02-14T15:48:50.735Z,47.30
2018-02-14T15:51:18.976Z,47.40
2018-02-14T15:53:47.420Z,47.10
2018-02-14T15:56:15.895Z,47.20
2018-02-14T15:58:44.175Z,47.50
2018-02-14T16:01:13.356Z,47.90
2018-02-14T16:03:41.409Z,47.90
2018-02-14T16:06:09.579Z,47.50
2018-02-14T16:08:37.975Z,47.40
2018-02-14T16:11:06.576Z,47.60
2018-02-14T16:13:35.616Z,49.20
2018-02-14T16:16:03.736Z,49.20
2018-02-14T16:18:32.216Z,49.70
2018-02-14T16:21:01.415Z,49.90
2018-02-14T16:23:30.503Z,50.20
2018-02-14T16:25:58.774Z,50.20
2018-02-14T16:28:26.956Z,50.40
2018-02-14T16:30:56.156Z,51.90
2018-02-14T16:33:24.316Z,51.30
2018-02-14T16:35:52.796Z,51.40
2018-02-14T16:38:21.075Z,51.80
2018-02-14T16:40:49.856Z,51.80
2018-02-14T16:43:18.135Z,51.80
2018-02-14T16:45:46.515Z,52.10
2018-02-14T16:48:14.876Z,51.60
2018-02-14T16:50:43.275Z,52.10
2018-02-14T16:53:11.935Z,51.60
2018-02-14T16:55:40.418Z,51.20
2018-02-14T16:58:09.035Z,51.60
2018-02-14T17:00:38.116Z,52.40
2018-02-14T17:03:06.215Z,52.40
2018-02-14T17:05:35.379Z,52.20
2018-02-14T17:08:03.974Z,52.20
2018-02-14T17:10:33.054Z,52.50
2018-02-14T17:13:01.635Z,52.40
2018-02-14T17:15:29.835Z,52.20
2018-02-14T17:17:58.655Z,52.20
2018-02-14T17:20:26.856Z,52.20
2018-02-14T17:22:55.255Z,52.50
2018-02-14T17:25:23.434Z,52.60
2018-02-14T17:27:51.594Z,52.60
2018-02-14T17:30:19.676Z,52.80
2018-02-14T17:32:47.815Z,52.60
2018-02-14T17:35:16.324Z,52.60
2018-02-14T17:37:44.695Z,52.90
2018-02-14T17:40:13.136Z,52.60
2018-02-14T17:42:41.356Z,52.70
2018-02-14T17:45:09.416Z,53.00
2018-02-14T17:47:37.715Z,53.10
2018-02-14T17:50:06.695Z,53.60
2018-02-14T17:52:34.755Z,53.60
2018-02-14T17:55:03.075Z,53.80
2018-02-14T17:57:31.576Z,54.10
2018-02-14T17:59:59.995Z,54.30
2018-02-14T18:02:29.714Z,54.40
2018-02-14T18:04:58.095Z,54.40
2018-02-14T18:07:27.295Z,54.10
2018-02-14T18:09:56.599Z,54.00
2018-02-14T18:12:28.395Z,54.00
2018-02-14T18:14:56.915Z,54.00
2018-02-14T18:17:25.394Z,54.20
2018-02-14T18:19:53.734Z,54.50
2018-02-14T18:22:22.035Z,54.60
2018-02-14T18:24:50.437Z,54.80
2018-02-14T18:27:18.755Z,54.60
2018-02-14T18:29:47.295Z,54.70
2018-02-14T18:32:15.655Z,54.30
2018-02-14T18:34:43.835Z,54.50
2018-02-14T18:37:12.395Z,54.50
2018-02-14T18:39:40.582Z,54.60
2018-02-14T18:42:08.796Z,54.70
2018-02-14T18:44:37.957Z,55.00
2018-02-14T18:47:06.257Z,55.00
2018-02-14T18:49:35.391Z,55.10
2018-02-14T18:52:03.618Z,55.00
2018-02-14T18:54:31.994Z,55.10
2018-02-14T18:57:01.895Z,55.30
2018-02-14T18:59:30.275Z,55.30
2018-02-14T19:01:59.995Z,55.00
2018-02-14T19:04:29.175Z,54.90
2018-02-14T19:06:57.595Z,55.00
2018-02-14T19:09:26.136Z,54.80
2018-02-14T19:11:54.534Z,55.00
2018-02-14T19:14:22.915Z,55.10
2018-02-14T19:16:52.095Z,55.70
2018-02-14T19:19:20.335Z,55.60
2018-02-14T19:21:48.576Z,55.90
2018-02-14T19:24:17.675Z,56.00
2018-02-14T19:26:45.835Z,56.00
2018-02-14T19:29:14.956Z,56.00
2018-02-14T19:31:43.495Z,55.90
2018-02-14T19:34:11.774Z,55.80
2018-02-14T19:36:40.855Z,56.00
2018-02-14T19:39:09.235Z,56.00
2018-02-14T19:41:37.516Z,56.10
2018-02-14T19:44:05.676Z,56.10
2018-02-14T19:46:33.836Z,56.20
2018-02-14T19:49:02.135Z,55.90
2018-02-14T19:51:30.914Z,55.90
2018-02-14T19:53:59.196Z,55.90
2018-02-14T19:56:27.475Z,56.00
2018-02-14T19:58:55.755Z,56.40
2018-02-14T20:01:24.155Z,56.00
2018-02-14T20:03:53.094Z,56.20
2018-02-14T20:06:21.174Z,56.20
2018-02-14T20:08:49.356Z,56.30
2018-02-14T20:11:17.556Z,56.10
2018-02-14T20:13:46.520Z,56.30
2018-02-14T20:16:15.515Z,56.30
2018-02-14T20:18:43.795Z,56.40
2018-02-14T20:21:12.176Z,56.40
2018-02-14T20:23:40.995Z,56.60
2018-02-14T20:26:09.116Z,56.60
2018-02-14T20:28:37.538Z,56.60
2018-02-14T20:31:06.816Z,56.60
2018-02-14T20:33:35.035Z,56.60
2018-02-14T20:36:03.475Z,56.60
2018-02-14T20:38:32.854Z,56.70
2018-02-14T20:41:01.034Z,56.70
2018-02-14T20:43:29.234Z,56.60
2018-02-14T20:45:58.315Z,56.90
2018-02-14T20:48:26.396Z,56.80
2018-02-14T20:50:55.675Z,56.80
2018-02-14T20:53:23.835Z,56.70
2018-02-14T20:55:52.234Z,56.80
2018-02-14T20:58:20.616Z,56.70
2018-02-14T21:00:49.896Z,56.80
2018-02-14T21:03:18.096Z,56.80
2018-02-14T21:05:47.155Z,57.00
2018-02-14T21:08:15.556Z,57.00
2018-02-14T21:10:44.056Z,56.90
2018-02-14T21:13:13.136Z,57.00
2018-02-14T21:15:42.116Z,57.20
2018-02-14T21:18:10.297Z,57.20
2018-02-14T21:20:38.456Z,57.10
2018-02-14T21:23:06.536Z,57.40
2018-02-14T21:25:34.914Z,57.00
2018-02-14T21:28:03.174Z,57.10
2018-02-14T21:30:31.455Z,57.00
2018-02-14T21:33:00.037Z,56.90
2018-02-14T21:35:29.236Z,56.80
2018-02-14T21:37:57.712Z,56.60
2018-02-14T21:40:25.950Z,56.90
2018-02-14T21:42:54.372Z,56.80
2018-02-14T21:45:22.630Z,56.80
2018-02-14T21:47:50.730Z,57.00
2018-02-14T21:50:19.556Z,57.10
2018-02-14T21:52:47.651Z,57.10
2018-02-14T21:55:16.271Z,57.20
2018-02-14T21:57:44.431Z,57.20
2018-02-14T22:00:12.831Z,56.30
2018-02-14T22:02:41.910Z,55.60
2018-02-14T22:05:10.071Z,55.60
2018-02-14T22:07:38.250Z,55.30
2018-02-14T22:10:06.210Z,54.50
2018-02-14T22:12:34.290Z,54.70
2018-02-14T22:15:02.672Z,54.30
2018-02-14T22:17:31.050Z,53.60
2018-02-14T22:19:59.551Z,53.00
2018-02-14T22:22:28.931Z,52.10
2018-02-14T22:24:57.271Z,52.10
2018-02-14T22:27:25.692Z,52.20
2018-02-14T22:29:54.791Z,52.70
2018-02-14T22:32:23.711Z,52.60
2018-02-14T22:34:52.250Z,52.50
2018-02-14T22:37:20.530Z,52.90
2018-02-14T22:39:48.890Z,52.40
2018-02-14T22:42:17.151Z,52.10
2018-02-14T22:44:45.551Z,52.50
2018-02-14T22:47:13.932Z,52.10
2018-02-14T22:49:42.111Z,52.20
2018-02-14T22:52:10.391Z,52.30
2018-02-14T22:54:39.570Z,52.60
2018-02-14T22:57:08.672Z,52.70
2018-02-14T22:59:36.950Z,52.70
2018-02-14T23:02:05.111Z,52.70
2018-02-14T23:04:33.390Z,52.60
2018-02-14T23:07:01.673Z,52.80
2018-02-14T23:09:29.831Z,52.70
2018-02-14T23:11:58.110Z,52.40
2018-02-14T23:14:26.395Z,52.70
2018-02-14T23:16:54.571Z,53.00
2018-02-14T23:19:22.850Z,53.10
2018-02-14T23:21:51.775Z,53.40
2018-02-14T23:24:20.011Z,53.40
2018-02-14T23:26:48.091Z,53.20
2018-02-14T23:29:17.270Z,53.50
2018-02-14T23:31:47.190Z,53.50
2018-02-14T23:34:15.359Z,53.40
2018-02-14T23:36:43.641Z,53.60
2018-02-14T23:39:12.051Z,53.40
2018-02-14T23:41:40.391Z,53.40
2018-02-14T23:44:08.670Z,53.40
2018-02-14T23:46:37.058Z,53.40
2018-02-14T23:49:06.051Z,53.20
2018-02-14T23:51:35.350Z,53.20
2018-02-14T23:54:04.631Z,53.70
2018-02-14T23:56:33.050Z,53.40
2018-02-14T23:59:01.390Z,54.00
